Time;durP1;ratioP1;P1;durP2;ratioP2;P2;SDS_P1;SDS_P2;PMS_P1;PMS_P2;Temp;Humidity;BMP_temperature;BMP_pressure;BME280_temperature;BME280_humidity;BME280_pressure;Samples;Min_cycle;Max_cycle;Signal;HPM_P1;HPM_P2
2022/03/11 00:02:47;;;;;;;15.07;6.85;;;;;;;;;;6243264;28;20055;-85
2022/03/11 00:05:51;;;;;;;13.80;6.32;;;;;;;;;;6233750;28;20535;-81
2022/03/11 00:08:52;;;;;;;;;;;;;;;;;;6209199;28;20461;-82
2022/03/11 00:11:54;;;;;;;13.00;6.57;;;;;;;;;;6240087;28;20535;-81
2022/03/11 00:14:56;;;;;;;15.35;6.60;;;;;;;;;;6220997;28;20053;-81
2022/03/11 00:17:57;;;;;;;12.73;6.38;;;;;;;;;;6222231;28;20066;-83
2022/03/11 00:20:59;;;;;;;12.82;6.38;;;;;;;;;;6218439;28;20123;-84
2022/03/11 00:24:01;;;;;;;15.02;6.30;;;;;;;;;;6221400;28;20078;-82
2022/03/11 00:27:03;;;;;;;13.90;6.20;;;;;;;;;;6222546;28;20042;-81
2022/03/11 00:30:06;;;;;;;13.57;6.60;;;;;;;;;;6235003;28;20500;-83
2022/03/11 00:33:08;;;;;;;13.00;6.20;;;;;;;;;;6220688;28;20641;-80
2022/03/11 00:36:10;;;;;;;13.75;6.20;;;;;;;;;;6217346;28;20450;-82
2022/03/11 00:39:13;;;;;;;13.80;5.97;;;;;;;;;;6243855;28;20053;-80
2022/03/11 00:42:15;;;;;;;12.00;6.00;;;;;;;;;;6243788;28;20049;-81
2022/03/11 00:45:17;;;;;;;15.18;6.32;;;;;;;;;;6243663;28;20077;-84
2022/03/11 00:48:20;;;;;;;15.55;6.97;;;;;;;;;;6221922;28;20644;-81
2022/03/11 00:51:21;;;;;;;15.18;7.35;;;;;;;;;;6232173;28;20125;-83
2022/03/11 00:54:24;;;;;;;14.65;6.63;;;;;;;;;;6235099;28;20121;-82
2022/03/11 00:57:26;;;;;;;14.65;6.38;;;;;;;;;;6227227;28;20045;-81
2022/03/11 01:00:28;;;;;;;11.80;6.00;;;;;;;;;;6243959;28;20134;-83
2022/03/11 01:03:29;;;;;;;17.05;7.60;;;;;;;;;;6244431;28;20067;-84
2022/03/11 01:06:31;;;;;;;13.15;5.75;;;;;;;;;;6241343;28;20307;-83
2022/03/11 01:09:33;;;;;;;12.98;6.03;;;;;;;;;;6217012;28;20887;-81
2022/03/11 01:12:37;;;;;;;16.02;6.47;;;;;;;;;;6258464;28;20069;-81
2022/03/11 01:15:38;;;;;;;10.70;5.88;;;;;;;;;;6242578;28;20049;-83
2022/03/11 01:18:40;;;;;;;12.45;6.40;;;;;;;;;;6244343;28;20041;-83
2022/03/11 01:21:42;;;;;;;11.82;6.80;;;;;;;;;;6239049;28;20634;-81
2022/03/11 01:24:44;;;;;;;14.63;6.20;;;;;;;;;;6242848;28;20125;-80
2022/03/11 01:27:45;;;;;;;18.38;6.15;;;;;;;;;;6229645;28;20120;-81
2022/03/11 01:30:47;;;;;;;17.15;7.35;;;;;;;;;;6219229;28;20078;-83
2022/03/11 01:33:49;;;;;;;14.63;6.38;;;;;;;;;;6216537;28;20132;-80
2022/03/11 01:36:51;;;;;;;14.98;6.05;;;;;;;;;;6219164;28;20068;-80
2022/03/11 01:39:52;;;;;;;19.20;6.85;;;;;;;;;;6216793;28;20124;-81
2022/03/11 01:42:54;;;;;;;15.65;6.32;;;;;;;;;;6217029;28;20124;-82
2022/03/11 01:45:58;;;;;;;16.60;6.95;;;;;;;;;;6220866;28;20068;-82
2022/03/11 01:49:01;;;;;;;14.27;6.75;;;;;;;;;;6243663;28;20053;-83
2022/03/11 01:52:03;;;;;;;16.88;7.45;;;;;;;;;;6222632;28;20127;-84
2022/03/11 01:55:05;;;;;;;18.30;7.65;;;;;;;;;;6242921;28;20065;-82
2022/03/11 01:58:08;;;;;;;16.48;7.03;;;;;;;;;;6228454;28;20948;-81
2022/03/11 02:01:09;;;;;;;14.07;7.35;;;;;;;;;;6233309;28;20053;-83
2022/03/11 02:04:11;;;;;;;16.75;7.25;;;;;;;;;;6218910;28;20053;-80
2022/03/11 02:07:13;;;;;;;19.15;7.55;;;;;;;;;;6217030;28;20431;-85
2022/03/11 02:10:15;;;;;;;17.30;7.53;;;;;;;;;;6250280;28;20648;-85
2022/03/11 02:13:17;;;;;;;17.67;7.20;;;;;;;;;;6231363;28;20095;-80
2022/03/11 02:16:20;;;;;;;16.85;7.80;;;;;;;;;;6240004;28;20049;-80
2022/03/11 02:19:24;;;;;;;17.83;8.07;;;;;;;;;;6242583;28;20045;-83
2022/03/11 02:22:26;;;;;;;17.15;7.38;;;;;;;;;;6231756;28;20100;-82
2022/03/11 02:25:27;;;;;;;19.20;7.57;;;;;;;;;;6216490;28;20065;-82
2022/03/11 02:28:32;;;;;;;17.05;7.75;;;;;;;;;;6235789;28;20125;-82
2022/03/11 02:31:34;;;;;;;16.25;7.90;;;;;;;;;;6241852;28;20091;-81
2022/03/11 02:34:40;;;;;;;15.50;8.15;;;;;;;;;;6243460;28;20592;-80
2022/03/11 02:37:42;;;;;;;19.75;9.07;;;;;;;;;;6234404;28;20065;-81
2022/03/11 02:40:43;;;;;;;21.45;8.23;;;;;;;;;;6237644;28;20101;-83
2022/03/11 02:43:46;;;;;;;20.52;8.55;;;;;;;;;;6219439;28;20039;-82
2022/03/11 02:46:48;;;;;;;19.10;8.60;;;;;;;;;;6202363;28;20037;-82
2022/03/11 02:49:49;;;;;;;20.48;8.50;;;;;;;;;;6217562;28;20112;-86
2022/03/11 02:52:52;;;;;;;22.85;8.98;;;;;;;;;;6225158;28;20046;-83
2022/03/11 02:55:53;;;;;;;21.90;8.75;;;;;;;;;;6230962;28;20049;-83
2022/03/11 02:58:55;;;;;;;19.58;8.07;;;;;;;;;;6220574;28;20096;-80
2022/03/11 03:01:56;;;;;;;18.10;8.32;;;;;;;;;;6216751;28;20500;-82
2022/03/11 03:04:58;;;;;;;19.10;8.30;;;;;;;;;;6221817;28;20048;-82
2022/03/11 03:08:00;;;;;;;21.63;9.82;;;;;;;;;;6240342;28;20053;-80
2022/03/11 03:11:02;;;;;;;21.65;8.77;;;;;;;;;;6239544;28;20118;-80
2022/03/11 03:14:04;;;;;;;16.02;8.00;;;;;;;;;;6218678;28;20458;-83
2022/03/11 03:17:06;;;;;;;19.77;8.30;;;;;;;;;;6215837;28;20049;-83
2022/03/11 03:20:09;;;;;;;18.33;8.93;;;;;;;;;;6216540;28;20050;-81
2022/03/11 03:23:11;;;;;;;17.98;8.57;;;;;;;;;;6232787;28;20575;-81
2022/03/11 03:26:12;;;;;;;21.65;9.05;;;;;;;;;;6216953;28;20049;-81
2022/03/11 03:29:14;;;;;;;20.05;8.82;;;;;;;;;;6230534;28;20148;-82
2022/03/11 03:32:15;;;;;;;22.63;9.68;;;;;;;;;;6192056;28;20128;-81
2022/03/11 03:35:17;;;;;;;22.27;10.07;;;;;;;;;;6251775;28;20133;-82
2022/03/11 03:38:19;;;;;;;21.77;8.65;;;;;;;;;;6220230;28;20114;-82
2022/03/11 03:41:21;;;;;;;22.75;9.32;;;;;;;;;;6204788;28;20061;-83
2022/03/11 03:44:23;;;;;;;20.77;8.68;;;;;;;;;;6236486;28;20156;-81
2022/03/11 03:47:24;;;;;;;24.52;9.70;;;;;;;;;;6237557;28;20080;-82
2022/03/11 03:50:27;;;;;;;21.35;9.55;;;;;;;;;;6220222;28;20154;-82
2022/03/11 03:53:29;;;;;;;22.23;9.40;;;;;;;;;;6244065;28;20063;-85
2022/03/11 03:56:31;;;;;;;26.55;10.02;;;;;;;;;;6242911;28;20456;-82
2022/03/11 03:59:33;;;;;;;23.60;10.73;;;;;;;;;;6235957;28;20093;-82
2022/03/11 04:02:36;;;;;;;21.08;9.65;;;;;;;;;;6235286;28;20145;-83
2022/03/11 04:05:38;;;;;;;20.08;9.65;;;;;;;;;;6243910;28;20518;-84
2022/03/11 04:08:40;;;;;;;23.00;9.82;;;;;;;;;;6220173;28;20522;-84
2022/03/11 04:11:41;;;;;;;22.33;10.68;;;;;;;;;;6221889;28;20046;-82
2022/03/11 04:14:43;;;;;;;24.85;10.55;;;;;;;;;;6243359;28;20065;-84
2022/03/11 04:17:45;;;;;;;22.63;10.30;;;;;;;;;;6245521;28;20068;-84
2022/03/11 04:20:46;;;;;;;26.08;10.90;;;;;;;;;;6242504;28;20046;-81
2022/03/11 04:23:49;;;;;;;23.30;10.50;;;;;;;;;;6247139;28;20065;-83
2022/03/11 04:26:52;;;;;;;23.30;10.68;;;;;;;;;;6242303;28;20144;-83
2022/03/11 04:29:53;;;;;;;25.98;9.93;;;;;;;;;;6247261;28;20163;-84
2022/03/11 04:32:57;;;;;;;26.80;10.55;;;;;;;;;;6246284;28;20893;-81
2022/03/11 04:35:59;;;;;;;29.35;10.05;;;;;;;;;;6229677;28;20071;-83
2022/03/11 04:39:00;;;;;;;24.27;9.98;;;;;;;;;;6228309;28;20045;-85
2022/03/11 04:42:02;;;;;;;25.00;10.27;;;;;;;;;;6223550;28;20046;-85
2022/03/11 04:45:06;;;;;;;;;;;;;;;;;;6223335;28;20046;-83
2022/03/11 04:48:07;;;;;;;30.33;10.48;;;;;;;;;;6254492;28;19925;-85
2022/03/11 04:51:09;;;;;;;25.58;9.95;;;;;;;;;;6238284;28;20757;-83
2022/03/11 04:54:11;;;;;;;27.05;10.60;;;;;;;;;;6256416;28;20083;-85
2022/03/11 04:57:13;;;;;;;25.13;10.55;;;;;;;;;;6257218;28;20068;-84
2022/03/11 05:00:15;;;;;;;25.55;11.25;;;;;;;;;;6221903;28;20125;-84
2022/03/11 05:03:17;;;;;;;28.15;10.98;;;;;;;;;;6222244;28;20061;-85
2022/03/11 05:06:20;;;;;;;25.45;10.95;;;;;;;;;;6226966;28;20439;-83
2022/03/11 05:09:22;;;;;;;27.13;11.55;;;;;;;;;;6247379;28;20095;-83
2022/03/11 05:12:24;;;;;;;24.88;11.05;;;;;;;;;;6255013;28;20068;-84
2022/03/11 05:15:26;;;;;;;29.50;11.55;;;;;;;;;;6222633;28;20052;-84
2022/03/11 05:18:28;;;;;;;27.20;11.23;;;;;;;;;;6204822;28;20133;-83
2022/03/11 05:21:30;;;;;;;29.50;12.55;;;;;;;;;;6221376;28;20132;-82
2022/03/11 05:24:31;;;;;;;29.80;12.13;;;;;;;;;;6225422;28;20048;-84
2022/03/11 05:27:34;;;;;;;30.38;11.80;;;;;;;;;;6221201;28;20066;-83
2022/03/11 05:30:40;;;;;;;30.83;12.95;;;;;;;;;;6221027;28;20041;-83
2022/03/11 05:33:48;;;;;;;27.92;12.40;;;;;;;;;;6220497;28;20423;-85
2022/03/11 05:36:50;;;;;;;27.85;11.93;;;;;;;;;;6221871;28;20129;-83
2022/03/11 05:39:53;;;;;;;27.75;12.45;;;;;;;;;;6221138;28;20069;-83
2022/03/11 05:42:54;;;;;;;30.67;13.75;;;;;;;;;;6224028;28;20058;-84
2022/03/11 05:45:56;;;;;;;27.55;11.60;;;;;;;;;;6227071;28;20072;-83
2022/03/11 05:48:58;;;;;;;30.42;12.48;;;;;;;;;;6246246;28;20426;-85
2022/03/11 05:52:00;;;;;;;29.77;11.98;;;;;;;;;;6229525;28;20066;-82
2022/03/11 05:55:02;;;;;;;32.15;13.63;;;;;;;;;;6219164;28;20038;-81
2022/03/11 05:58:03;;;;;;;33.85;13.30;;;;;;;;;;6218482;28;20611;-82
2022/03/11 06:01:06;;;;;;;28.75;12.38;;;;;;;;;;6215632;28;20046;-81
2022/03/11 06:04:07;;;;;;;30.23;11.90;;;;;;;;;;6218642;28;20042;-82
2022/03/11 06:07:09;;;;;;;29.67;11.73;;;;;;;;;;6237712;28;20048;-82
2022/03/11 06:10:11;;;;;;;31.52;12.60;;;;;;;;;;6241090;28;20192;-82
2022/03/11 06:13:14;;;;;;;30.45;12.50;;;;;;;;;;6239261;28;20114;-81
2022/03/11 06:16:16;;;;;;;31.27;12.75;;;;;;;;;;6258161;28;20462;-84
2022/03/11 06:19:18;;;;;;;29.63;11.95;;;;;;;;;;6241002;28;20050;-83
2022/03/11 06:22:19;;;;;;;27.50;11.80;;;;;;;;;;6241225;28;20060;-83
2022/03/11 06:25:21;;;;;;;31.48;12.25;;;;;;;;;;6242495;28;20084;-80
2022/03/11 06:28:23;;;;;;;31.15;12.82;;;;;;;;;;6226740;28;20065;-82
2022/03/11 06:31:25;;;;;;;34.90;13.02;;;;;;;;;;6215119;28;20038;-84
2022/03/11 06:34:27;;;;;;;28.52;12.10;;;;;;;;;;6215870;28;20384;-82
2022/03/11 06:37:33;;;;;;;31.15;12.02;;;;;;;;;;6213917;28;20060;-83
2022/03/11 06:40:35;;;;;;;36.38;13.32;;;;;;;;;;6248474;28;20096;-81
2022/03/11 06:43:36;;;;;;;31.15;11.90;;;;;;;;;;6235355;28;20184;-79
2022/03/11 06:46:38;;;;;;;29.60;11.68;;;;;;;;;;6244137;28;20045;-82
2022/03/11 06:49:39;;;;;;;30.38;12.75;;;;;;;;;;6243066;28;20057;-83
2022/03/11 06:52:42;;;;;;;34.72;14.20;;;;;;;;;;6256219;28;20463;-80
2022/03/11 06:55:43;;;;;;;31.40;13.65;;;;;;;;;;6241082;28;20495;-84
2022/03/11 06:58:45;;;;;;;30.02;11.75;;;;;;;;;;6233873;28;20137;-80
2022/03/11 07:01:47;;;;;;;34.78;13.75;;;;;;;;;;6224652;28;20169;-81
2022/03/11 07:04:52;;;;;;;29.77;12.32;;;;;;;;;;6258492;28;20045;-82
2022/03/11 07:07:54;;;;;;;28.63;12.70;;;;;;;;;;6251251;28;20052;-81
2022/03/11 07:10:55;;;;;;;32.17;12.18;;;;;;;;;;6242739;28;20135;-82
2022/03/11 07:13:58;;;;;;;32.50;12.02;;;;;;;;;;6244335;28;20038;-81
2022/03/11 07:17:00;;;;;;;28.97;11.70;;;;;;;;;;6243791;28;20191;-81
2022/03/11 07:20:03;;;;;;;23.40;11.30;;;;;;;;;;6244408;28;20048;-83
2022/03/11 07:23:05;;;;;;;;;;;;;;;;;;6242454;28;20041;-79
2022/03/11 07:26:07;;;;;;;28.63;11.60;;;;;;;;;;6240901;28;19921;-81
2022/03/11 07:29:08;;;;;;;23.85;11.65;;;;;;;;;;6231162;28;20124;-80
2022/03/11 07:32:12;;;;;;;29.27;10.63;;;;;;;;;;6219795;28;20076;-83
2022/03/11 07:35:14;;;;;;;27.77;11.45;;;;;;;;;;6215418;28;20049;-80
2022/03/11 07:38:15;;;;;;;22.48;10.45;;;;;;;;;;6193646;28;20134;-79
2022/03/11 07:41:17;;;;;;;26.40;11.45;;;;;;;;;;6217069;28;20113;-79
2022/03/11 07:44:20;;;;;;;23.65;10.65;;;;;;;;;;6215674;28;20511;-82
2022/03/11 07:47:31;;;;;;;28.63;11.93;;;;;;;;;;6216639;28;20080;-81
2022/03/11 07:50:33;;;;;;;35.63;15.68;;;;;;;;;;6214457;28;20053;-84
2022/03/11 07:53:36;;;;;;;23.25;10.65;;;;;;;;;;6217996;28;20185;-81
2022/03/11 07:56:38;;;;;;;19.88;9.93;;;;;;;;;;6218286;28;20383;-82
2022/03/11 07:59:41;;;;;;;22.27;10.77;;;;;;;;;;6221404;28;20152;-82
2022/03/11 08:02:43;;;;;;;23.60;9.80;;;;;;;;;;6225222;28;20045;-81
2022/03/11 08:05:45;;;;;;;22.02;10.43;;;;;;;;;;6239004;28;20042;-81
2022/03/11 08:08:47;;;;;;;20.35;9.68;;;;;;;;;;6241264;28;20061;-81
2022/03/11 08:11:49;;;;;;;18.58;9.70;;;;;;;;;;6238529;28;20064;-82
2022/03/11 08:14:51;;;;;;;22.55;11.57;;;;;;;;;;6245029;28;20115;-80
2022/03/11 08:17:52;;;;;;;17.40;8.93;;;;;;;;;;6242206;28;20095;-79
2022/03/11 08:20:55;;;;;;;21.45;9.50;;;;;;;;;;6241997;28;20096;-82
2022/03/11 08:23:57;;;;;;;17.13;8.75;;;;;;;;;;6246748;28;20127;-78
2022/03/11 08:27:00;;;;;;;17.50;9.32;;;;;;;;;;6244770;28;20051;-81
2022/03/11 08:30:01;;;;;;;19.95;8.93;;;;;;;;;;6245220;28;20111;-80
2022/03/11 08:33:04;;;;;;;14.73;8.02;;;;;;;;;;6244215;28;20041;-81
2022/03/11 08:36:26;;;;;;;20.00;9.38;;;;;;;;;;6246084;28;20053;-82
2022/03/11 08:39:28;;;;;;;18.75;9.18;;;;;;;;;;6248006;28;20076;-81
2022/03/11 08:42:30;;;;;;;17.30;8.43;;;;;;;;;;6243182;28;20098;-81
2022/03/11 08:45:32;;;;;;;18.55;8.90;;;;;;;;;;6243870;28;20045;-78
2022/03/11 08:48:34;;;;;;;17.73;7.57;;;;;;;;;;6246429;28;20076;-81
2022/03/11 08:51:36;;;;;;;17.50;8.85;;;;;;;;;;6228297;28;20045;-80
2022/03/11 08:54:37;;;;;;;17.42;8.32;;;;;;;;;;6239553;28;20118;-80
2022/03/11 08:57:40;;;;;;;17.40;8.02;;;;;;;;;;6233862;28;20049;-82
2022/03/11 09:00:44;;;;;;;16.65;8.20;;;;;;;;;;6213849;28;20042;-78
2022/03/11 09:03:46;;;;;;;18.40;8.35;;;;;;;;;;6235609;28;20134;-81
2022/03/11 09:06:48;;;;;;;17.67;8.88;;;;;;;;;;6221681;28;20050;-80
2022/03/11 09:09:49;;;;;;;16.42;8.60;;;;;;;;;;6214481;28;20129;-80
2022/03/11 09:12:51;;;;;;;16.17;8.98;;;;;;;;;;6213268;28;20104;-78
2022/03/11 09:15:53;;;;;;;16.13;7.55;;;;;;;;;;6212839;28;20129;-79
2022/03/11 09:18:54;;;;;;;19.63;8.57;;;;;;;;;;6213874;28;20488;-79
2022/03/11 09:21:57;;;;;;;20.75;9.52;;;;;;;;;;6213686;28;20054;-81
2022/03/11 09:25:00;;;;;;;16.73;8.23;;;;;;;;;;6221370;28;20103;-80
2022/03/11 09:28:02;;;;;;;;;;;;;;;;;;6246923;28;20124;-80
2022/03/11 09:31:08;;;;;;;19.25;8.75;;;;;;;;;;6241567;28;19921;-79
2022/03/11 09:34:10;;;;;;;15.73;8.32;;;;;;;;;;6240152;28;20063;-81
2022/03/11 09:37:12;;;;;;;17.83;7.78;;;;;;;;;;6229754;28;20049;-83
2022/03/11 09:40:15;;;;;;;17.35;7.65;;;;;;;;;;6219418;28;20120;-82
2022/03/11 09:43:18;;;;;;;16.60;8.38;;;;;;;;;;6220934;28;20069;-83
2022/03/11 09:46:20;;;;;;;16.33;8.55;;;;;;;;;;6236179;28;20517;-81
2022/03/11 09:49:21;;;;;;;13.10;8.25;;;;;;;;;;6239017;28;20045;-85
2022/03/11 09:52:24;;;;;;;17.50;8.60;;;;;;;;;;6237319;28;20520;-80
2022/03/11 09:55:26;;;;;;;16.30;8.40;;;;;;;;;;6241486;28;20048;-80
2022/03/11 09:58:28;;;;;;;15.23;8.60;;;;;;;;;;6227586;28;20092;-81
2022/03/11 10:01:33;;;;;;;16.23;8.68;;;;;;;;;;6234921;28;20100;-80
2022/03/11 10:04:35;;;;;;;15.20;8.05;;;;;;;;;;6194371;28;20141;-80
2022/03/11 10:07:37;;;;;;;14.00;7.75;;;;;;;;;;6221689;28;20069;-80
2022/03/11 10:10:38;;;;;;;16.50;8.30;;;;;;;;;;6218443;28;20109;-80
2022/03/11 10:13:41;;;;;;;15.65;7.88;;;;;;;;;;6235524;28;20046;-80
2022/03/11 10:16:46;;;;;;;14.77;7.80;;;;;;;;;;6243527;28;20041;-79
2022/03/11 10:19:59;;;;;;;12.95;8.07;;;;;;;;;;6242801;28;20111;-80
2022/03/11 10:23:07;;;;;;;15.18;7.63;;;;;;;;;;6223229;28;20057;-79
2022/03/11 10:26:09;;;;;;;13.50;7.60;;;;;;;;;;6219628;28;20045;-80
2022/03/11 10:29:18;;;;;;;13.98;7.88;;;;;;;;;;6238311;28;20518;-80
2022/03/11 10:32:25;;;;;;;21.60;12.02;;;;;;;;;;6243217;28;20037;-80
2022/03/11 10:35:32;;;;;;;13.27;7.82;;;;;;;;;;6274681;28;20144;-79
2022/03/11 10:38:36;;;;;;;15.88;8.18;;;;;;;;;;6221789;28;20076;-79
2022/03/11 10:41:37;;;;;;;19.73;7.97;;;;;;;;;;6217935;28;20045;-80
2022/03/11 10:44:40;;;;;;;12.70;7.90;;;;;;;;;;6218551;28;20511;-80
2022/03/11 10:47:46;;;;;;;15.25;7.90;;;;;;;;;;6221379;28;20045;-80
2022/03/11 10:50:50;;;;;;;15.30;7.10;;;;;;;;;;6222966;28;20045;-80
2022/03/11 10:53:51;;;;;;;14.88;7.72;;;;;;;;;;6219969;28;20084;-80
2022/03/11 10:56:54;;;;;;;11.48;6.82;;;;;;;;;;6221474;28;20136;-80
2022/03/11 10:59:56;;;;;;;14.68;7.18;;;;;;;;;;6243432;28;20049;-81
2022/03/11 11:02:59;;;;;;;13.15;7.68;;;;;;;;;;6241327;28;20120;-79
2022/03/11 11:06:01;;;;;;;13.95;7.80;;;;;;;;;;6239931;28;20054;-80
2022/03/11 11:09:05;;;;;;;15.73;7.70;;;;;;;;;;6219411;28;20065;-80
2022/03/11 11:12:07;;;;;;;12.63;7.15;;;;;;;;;;6245871;28;20048;-80
2022/03/11 11:15:11;;;;;;;15.02;7.65;;;;;;;;;;6246577;28;20809;-80
2022/03/11 11:18:13;;;;;;;14.20;7.15;;;;;;;;;;6247985;28;20141;-79
2022/03/11 11:21:24;;;;;;;15.50;7.57;;;;;;;;;;6276772;28;20053;-80
2022/03/11 11:24:27;;;;;;;12.52;7.00;;;;;;;;;;6245778;28;20049;-80
2022/03/11 11:27:32;;;;;;;11.18;6.47;;;;;;;;;;6237247;28;20112;-80
2022/03/11 11:30:34;;;;;;;13.82;7.55;;;;;;;;;;6220330;28;20125;-80
2022/03/11 11:33:36;;;;;;;13.77;7.53;;;;;;;;;;6222596;28;20065;-80
2022/03/11 11:36:39;;;;;;;12.85;7.03;;;;;;;;;;6220697;28;20103;-80
2022/03/11 11:39:42;;;;;;;14.50;8.15;;;;;;;;;;6219924;28;20236;-79
2022/03/11 11:43:12;;;;;;;13.90;7.95;;;;;;;;;;6218490;28;20069;-81
2022/03/11 11:46:16;;;;;;;14.93;7.35;;;;;;;;;;6218847;28;20049;-78
2022/03/11 11:49:22;;;;;;;16.08;7.63;;;;;;;;;;6218220;28;20065;-82
2022/03/11 11:52:33;;;;;;;13.20;7.70;;;;;;;;;;6217072;28;20050;-81
2022/03/11 11:55:55;;;;;;;15.50;7.75;;;;;;;;;;6240733;28;20057;-80
2022/03/11 11:59:02;;;;;;;14.32;7.53;;;;;;;;;;6235368;28;20131;-81
2022/03/11 12:02:23;;;;;;;12.85;6.95;;;;;;;;;;6221571;28;20073;-81
2022/03/11 12:05:47;;;;;;;12.93;7.10;;;;;;;;;;6219877;28;20081;-80
2022/03/11 12:08:49;;;;;;;;;;;;;;;;;;6221658;28;20064;-81
2022/03/11 12:11:51;;;;;;;13.70;7.45;;;;;;;;;;6221897;28;19925;-80
2022/03/11 12:15:00;;;;;;;12.45;6.97;;;;;;;;;;6220447;28;20508;-84
2022/03/11 12:18:02;;;;;;;11.75;7.10;;;;;;;;;;6221860;28;20046;-82
2022/03/11 12:21:05;;;;;;;11.85;7.53;;;;;;;;;;6221191;28;20046;-82
2022/03/11 12:24:32;;;;;;;17.25;7.28;;;;;;;;;;6222255;28;20052;-80
2022/03/11 12:27:57;;;;;;;13.45;7.35;;;;;;;;;;6219793;28;20054;-81
2022/03/11 12:31:00;;;;;;;14.30;7.35;;;;;;;;;;6219719;28;20968;-82
2022/03/11 12:34:04;;;;;;;14.27;7.25;;;;;;;;;;6221576;28;20042;-81
2022/03/11 12:37:07;;;;;;;15.90;7.60;;;;;;;;;;6221389;28;20046;-82
2022/03/11 12:40:09;;;;;;;13.00;7.13;;;;;;;;;;6218981;28;20061;-82
2022/03/11 12:43:12;;;;;;;15.73;7.10;;;;;;;;;;6219412;28;20710;-81
2022/03/11 12:46:14;;;;;;;;;;;;;;;;;;6218750;28;20092;-78
2022/03/11 12:49:27;;;;;;;15.50;7.43;;;;;;;;;;6213608;28;19957;-79
2022/03/11 12:52:36;;;;;;;13.68;7.15;;;;;;;;;;6225602;28;20152;-78
2022/03/11 12:55:44;;;;;;;12.48;7.10;;;;;;;;;;6212154;28;20046;-78
2022/03/11 12:58:47;;;;;;;15.55;7.70;;;;;;;;;;6232565;28;20219;-80
2022/03/11 13:01:51;;;;;;;12.75;7.60;;;;;;;;;;6237686;28;20049;-78
2022/03/11 13:04:53;;;;;;;12.45;7.65;;;;;;;;;;6242497;28;20037;-83
2022/03/11 13:08:06;;;;;;;14.38;8.20;;;;;;;;;;6262790;28;20038;-81
2022/03/11 13:11:10;;;;;;;14.98;7.13;;;;;;;;;;6234737;28;20612;-82
2022/03/11 13:14:12;;;;;;;14.00;7.40;;;;;;;;;;6218107;28;20049;-82
2022/03/11 13:17:14;;;;;;;15.45;7.70;;;;;;;;;;6218002;28;20077;-82
2022/03/11 13:20:32;;;;;;;12.90;7.82;;;;;;;;;;6217093;28;20506;-81
2022/03/11 13:23:35;;;;;;;13.80;7.30;;;;;;;;;;6251389;28;20120;-80
2022/03/11 13:26:37;;;;;;;12.52;7.50;;;;;;;;;;6216548;28;20200;-81
2022/03/11 13:29:42;;;;;;;12.57;7.63;;;;;;;;;;6223982;28;20056;-80
2022/03/11 13:32:43;;;;;;;12.65;7.40;;;;;;;;;;6245198;28;20052;-80
2022/03/11 13:35:46;;;;;;;13.25;7.50;;;;;;;;;;6224194;28;21759;-80
2022/03/11 13:38:47;;;;;;;12.23;7.53;;;;;;;;;;6236787;28;20207;-80
2022/03/11 13:41:52;;;;;;;12.23;6.82;;;;;;;;;;6233626;28;20128;-80
2022/03/11 13:45:07;;;;;;;13.07;7.82;;;;;;;;;;6215281;28;20041;-81
2022/03/11 13:48:09;;;;;;;14.80;7.40;;;;;;;;;;6219640;28;20103;-80
2022/03/11 13:51:11;;;;;;;13.05;7.20;;;;;;;;;;6230285;28;20152;-81
2022/03/11 13:54:30;;;;;;;12.98;7.13;;;;;;;;;;6231056;28;20262;-81
2022/03/11 13:57:36;;;;;;;15.43;7.82;;;;;;;;;;6232111;28;20180;-80
2022/03/11 14:00:37;;;;;;;13.05;7.82;;;;;;;;;;6219887;28;20054;-80
2022/03/11 14:03:42;;;;;;;14.70;8.38;;;;;;;;;;6226658;28;20048;-81
2022/03/11 14:06:44;;;;;;;14.02;7.88;;;;;;;;;;6241445;28;20038;-83
2022/03/11 14:09:54;;;;;;;10.80;7.10;;;;;;;;;;6225043;28;20124;-83
2022/03/11 14:13:07;;;;;;;11.85;6.45;;;;;;;;;;6232734;28;20128;-82
2022/03/11 14:16:12;;;;;;;10.65;6.78;;;;;;;;;;6226327;28;20045;-83
2022/03/11 14:19:14;;;;;;;12.00;7.03;;;;;;;;;;6219337;28;20046;-80
2022/03/11 14:22:17;;;;;;;13.63;8.10;;;;;;;;;;6225682;28;20584;-81
2022/03/11 14:25:19;;;;;;;13.85;8.25;;;;;;;;;;6213525;28;20190;-81
2022/03/11 14:28:21;;;;;;;14.15;7.90;;;;;;;;;;6233506;28;20049;-80
2022/03/11 14:31:22;;;;;;;11.85;7.25;;;;;;;;;;6224014;28;20138;-79
2022/03/11 14:34:24;;;;;;;11.98;7.20;;;;;;;;;;6218848;28;20045;-80
2022/03/11 14:37:25;;;;;;;13.98;7.68;;;;;;;;;;6257414;28;20454;-80
2022/03/11 14:40:29;;;;;;;12.40;7.30;;;;;;;;;;6228109;28;20045;-81
2022/03/11 14:43:30;;;;;;;12.30;7.28;;;;;;;;;;6226165;28;20070;-82
2022/03/11 14:46:35;;;;;;;;;;;;;;;;;;6217000;28;20041;-82
2022/03/11 14:49:37;;;;;;;15.88;8.50;;;;;;;;;;6222327;28;20016;-81
2022/03/11 14:52:42;;;;;;;14.77;8.63;;;;;;;;;;6243654;28;20053;-81
2022/03/11 14:55:46;;;;;;;10.43;7.15;;;;;;;;;;6237029;28;20127;-80
2022/03/11 14:58:48;;;;;;;10.88;6.95;;;;;;;;;;6228338;28;20130;-81
2022/03/11 15:01:49;;;;;;;15.07;7.45;;;;;;;;;;6221486;28;20045;-82
2022/03/11 15:04:54;;;;;;;13.82;7.15;;;;;;;;;;6229968;28;20053;-80
2022/03/11 15:07:56;;;;;;;13.88;8.18;;;;;;;;;;6223006;28;20129;-82
2022/03/11 15:10:58;;;;;;;15.15;8.93;;;;;;;;;;6229400;28;20049;-80
2022/03/11 15:14:01;;;;;;;12.68;7.57;;;;;;;;;;6236382;28;20045;-83
2022/03/11 15:17:03;;;;;;;15.25;7.43;;;;;;;;;;6222394;28;20065;-83
2022/03/11 15:20:05;;;;;;;12.25;7.05;;;;;;;;;;6224747;28;20129;-83
2022/03/11 15:23:07;;;;;;;13.38;7.32;;;;;;;;;;6219649;28;20120;-82
2022/03/11 15:26:09;;;;;;;10.85;7.10;;;;;;;;;;6221099;28;20050;-82
2022/03/11 15:29:10;;;;;;;12.25;7.38;;;;;;;;;;6224308;28;20062;-83
2022/03/11 15:32:12;;;;;;;13.00;7.75;;;;;;;;;;6240116;28;20085;-84
2022/03/11 15:35:14;;;;;;;11.07;7.22;;;;;;;;;;6228195;28;20061;-84
2022/03/11 15:38:16;;;;;;;11.55;6.97;;;;;;;;;;6246871;28;20051;-83
2022/03/11 15:41:18;;;;;;;11.52;6.78;;;;;;;;;;6254357;28;20104;-83
2022/03/11 15:44:20;;;;;;;12.90;7.80;;;;;;;;;;6255473;28;20449;-84
2022/03/11 15:47:22;;;;;;;12.80;8.40;;;;;;;;;;6246160;28;20061;-83
2022/03/11 15:50:24;;;;;;;10.98;6.93;;;;;;;;;;6242329;28;20068;-83
2022/03/11 15:53:26;;;;;;;12.63;7.40;;;;;;;;;;6254844;28;20045;-83
2022/03/11 15:56:27;;;;;;;13.57;7.80;;;;;;;;;;6251610;28;20057;-83
2022/03/11 15:59:29;;;;;;;11.93;7.18;;;;;;;;;;6253094;28;20049;-83
2022/03/11 16:02:36;;;;;;;13.82;6.93;;;;;;;;;;6253921;28;20095;-83
2022/03/11 16:05:39;;;;;;;14.20;7.35;;;;;;;;;;6242764;28;20041;-83
2022/03/11 16:08:41;;;;;;;13.00;7.10;;;;;;;;;;6257624;28;20080;-83
2022/03/11 16:11:43;;;;;;;13.82;7.30;;;;;;;;;;6233618;28;20053;-82
2022/03/11 16:14:45;;;;;;;15.48;7.80;;;;;;;;;;6233241;28;20112;-82
2022/03/11 16:17:47;;;;;;;12.00;7.10;;;;;;;;;;6267050;28;20042;-85
2022/03/11 16:20:50;;;;;;;10.20;6.07;;;;;;;;;;6271864;28;20056;-85
2022/03/11 16:23:52;;;;;;;16.27;8.00;;;;;;;;;;6232400;28;20440;-84
2022/03/11 16:26:54;;;;;;;13.70;9.13;;;;;;;;;;6255628;28;20096;-82
2022/03/11 16:29:56;;;;;;;12.20;7.70;;;;;;;;;;6242855;28;20068;-82
2022/03/11 16:32:58;;;;;;;13.13;7.30;;;;;;;;;;6249442;28;20045;-83
2022/03/11 16:36:00;;;;;;;10.43;6.18;;;;;;;;;;6252453;28;20583;-82
2022/03/11 16:39:02;;;;;;;11.00;6.32;;;;;;;;;;6235139;28;20053;-82
2022/03/11 16:42:05;;;;;;;12.07;5.85;;;;;;;;;;6240608;28;20418;-82
2022/03/11 16:45:07;;;;;;;11.10;6.30;;;;;;;;;;6219636;28;20175;-81
2022/03/11 16:48:09;;;;;;;11.93;7.10;;;;;;;;;;6228585;28;20610;-81
2022/03/11 16:51:10;;;;;;;23.30;10.48;;;;;;;;;;6227943;28;20077;-81
2022/03/11 16:54:14;;;;;;;12.95;6.35;;;;;;;;;;6220359;28;20049;-81
2022/03/11 16:57:15;;;;;;;10.45;6.00;;;;;;;;;;6237070;28;20150;-81
2022/03/11 17:00:17;;;;;;;10.10;6.45;;;;;;;;;;6234629;28;20102;-82
2022/03/11 17:03:20;;;;;;;17.58;8.43;;;;;;;;;;6229073;28;20061;-82
2022/03/11 17:06:21;;;;;;;23.35;10.95;;;;;;;;;;6227588;28;20134;-82
2022/03/11 17:09:24;;;;;;;21.73;10.68;;;;;;;;;;6238954;28;20065;-82
2022/03/11 17:12:28;;;;;;;22.85;11.02;;;;;;;;;;6240687;28;20131;-83
2022/03/11 17:15:47;;;;;;;12.63;6.28;;;;;;;;;;6242059;28;20059;-81
2022/03/11 17:18:49;;;;;;;13.07;5.82;;;;;;;;;;6245109;28;20095;-81
2022/03/11 17:21:51;;;;;;;15.20;6.57;;;;;;;;;;6220524;28;20041;-80
2022/03/11 17:24:52;;;;;;;18.00;9.93;;;;;;;;;;6218544;28;20121;-79
2022/03/11 17:27:54;;;;;;;19.98;10.05;;;;;;;;;;6225736;28;20068;-82
2022/03/11 17:30:55;;;;;;;21.67;11.02;;;;;;;;;;6243071;28;20053;-80
2022/03/11 17:33:57;;;;;;;22.08;11.45;;;;;;;;;;6244053;28;20513;-80
2022/03/11 17:37:00;;;;;;;20.83;11.30;;;;;;;;;;6233457;28;20073;-80
2022/03/11 17:40:02;;;;;;;19.90;8.60;;;;;;;;;;6218867;28;20100;-81
2022/03/11 17:43:05;;;;;;;15.43;8.10;;;;;;;;;;6231305;28;20038;-81
2022/03/11 17:46:08;;;;;;;17.90;8.95;;;;;;;;;;6218471;28;20046;-83
2022/03/11 17:49:10;;;;;;;22.17;10.65;;;;;;;;;;6221348;28;20038;-81
2022/03/11 17:52:12;;;;;;;26.60;12.00;;;;;;;;;;6197536;28;20109;-81
2022/03/11 17:55:15;;;;;;;18.35;10.85;;;;;;;;;;6218615;28;20058;-80
2022/03/11 17:58:17;;;;;;;19.50;11.23;;;;;;;;;;6227311;28;20131;-81
2022/03/11 18:01:19;;;;;;;22.73;11.82;;;;;;;;;;6231968;28;20062;-82